sensor_id;sensor_type;location;lat;lon;timestamp;P1;durP1;ratioP1;P2;durP2;ratioP2
56271;SDS011;42177;48.914;18.160;2023-09-18T00:03:30;9.7;;;8.7;;
56271;SDS011;42177;48.914;18.160;2023-09-18T00:08:31;9.7;;;8.7;;
56271;SDS011;42177;48.914;18.160;2023-09-18T00:13:30;10;;;7.8;;
56271;SDS011;42177;48.914;18.160;2023-09-18T00:18:30;10;;;7.8;;
56271;SDS011;42177;48.914;18.160;2023-09-18T00:23:30;9.4;;;8.3;;
56271;SDS011;42177;48.914;18.160;2023-09-18T00:28:30;9.4;;;8.3;;
56271;SDS011;42177;48.914;18.160;2023-09-18T00:33:31;10.1;;;9.1;;
56271;SDS011;42177;48.914;18.160;2023-09-18T00:38:30;10.1;;;9.1;;
56271;SDS011;42177;48.914;18.160;2023-09-18T00:43:30;11;;;10;;
56271;SDS011;42177;48.914;18.160;2023-09-18T00:48:30;11;;;10;;
56271;SDS011;42177;48.914;18.160;2023-09-18T00:53:30;11.9;;;10.8;;
56271;SDS011;42177;48.914;18.160;2023-09-18T00:58:30;11.9;;;10.8;;
56271;SDS011;42177;48.914;18.160;2023-09-18T01:03:30;10.8;;;9.8;;
56271;SDS011;42177;48.914;18.160;2023-09-18T01:08:30;10.8;;;9.8;;
56271;SDS011;42177;48.914;18.160;2023-09-18T01:13:33;11.7;;;10.5;;
56271;SDS011;42177;48.914;18.160;2023-09-18T01:18:30;11.7;;;10.5;;
56271;SDS011;42177;48.914;18.160;2023-09-18T01:23:30;10.7;;;9.7;;
56271;SDS011;42177;48.914;18.160;2023-09-18T01:28:30;10.7;;;9.7;;
56271;SDS011;42177;48.914;18.160;2023-09-18T01:33:30;10.9;;;9.8;;
56271;SDS011;42177;48.914;18.160;2023-09-18T01:38:30;10.9;;;9.8;;
56271;SDS011;42177;48.914;18.160;2023-09-18T01:43:30;11.9;;;10.6;;
56271;SDS011;42177;48.914;18.160;2023-09-18T01:48:30;11.9;;;10.6;;
56271;SDS011;42177;48.914;18.160;2023-09-18T01:53:30;10.4;;;9.4;;
56271;SDS011;42177;48.914;18.160;2023-09-18T01:58:30;10.4;;;9.4;;
56271;SDS011;42177;48.914;18.160;2023-09-18T02:03:30;11.1;;;9.8;;
56271;SDS011;42177;48.914;18.160;2023-09-18T02:08:30;11.1;;;9.8;;
56271;SDS011;42177;48.914;18.160;2023-09-18T02:13:30;10.8;;;9.7;;
56271;SDS011;42177;48.914;18.160;2023-09-18T02:18:30;10.8;;;9.7;;
56271;SDS011;42177;48.914;18.160;2023-09-18T02:23:30;10.4;;;8.9;;
56271;SDS011;42177;48.914;18.160;2023-09-18T02:28:30;10.4;;;8.9;;
56271;SDS011;42177;48.914;18.160;2023-09-18T02:33:30;9.7;;;8.7;;
56271;SDS011;42177;48.914;18.160;2023-09-18T02:38:30;9.7;;;8.7;;
56271;SDS011;42177;48.914;18.160;2023-09-18T02:43:30;10.3;;;9.2;;
56271;SDS011;42177;48.914;18.160;2023-09-18T02:48:30;10.3;;;9.2;;
56271;SDS011;42177;48.914;18.160;2023-09-18T02:53:30;11.2;;;8.9;;
56271;SDS011;42177;48.914;18.160;2023-09-18T02:58:30;11.2;;;8.9;;
56271;SDS011;42177;48.914;18.160;2023-09-18T03:03:30;10.3;;;9.3;;
56271;SDS011;42177;48.914;18.160;2023-09-18T03:08:30;10.3;;;9.3;;
56271;SDS011;42177;48.914;18.160;2023-09-18T03:13:30;10.9;;;9.2;;
56271;SDS011;42177;48.914;18.160;2023-09-18T03:18:30;10.9;;;9.2;;
56271;SDS011;42177;48.914;18.160;2023-09-18T03:23:30;11.5;;;8.8;;
56271;SDS011;42177;48.914;18.160;2023-09-18T03:28:30;11.5;;;8.8;;
56271;SDS011;42177;48.914;18.160;2023-09-18T03:33:30;13.4;;;10.5;;
56271;SDS011;42177;48.914;18.160;2023-09-18T03:38:30;13.4;;;10.5;;
56271;SDS011;42177;48.914;18.160;2023-09-18T03:43:30;12.8;;;10.7;;
56271;SDS011;42177;48.914;18.160;2023-09-18T03:48:30;12.8;;;10.7;;
56271;SDS011;42177;48.914;18.160;2023-09-18T03:53:31;10.6;;;9.4;;
56271;SDS011;42177;48.914;18.160;2023-09-18T03:58:30;10.6;;;9.4;;
56271;SDS011;42177;48.914;18.160;2023-09-18T04:03:31;10.7;;;9.6;;
56271;SDS011;42177;48.914;18.160;2023-09-18T04:08:30;10.7;;;9.6;;
56271;SDS011;42177;48.914;18.160;2023-09-18T04:13:30;11.2;;;9.8;;
56271;SDS011;42177;48.914;18.160;2023-09-18T04:18:30;11.2;;;9.8;;
56271;SDS011;42177;48.914;18.160;2023-09-18T04:23:30;12.2;;;10;;
56271;SDS011;42177;48.914;18.160;2023-09-18T04:28:30;12.2;;;10;;
56271;SDS011;42177;48.914;18.160;2023-09-18T04:33:30;11.7;;;9.5;;
56271;SDS011;42177;48.914;18.160;2023-09-18T04:38:30;11.7;;;9.5;;
56271;SDS011;42177;48.914;18.160;2023-09-18T04:43:30;11.9;;;10.6;;
56271;SDS011;42177;48.914;18.160;2023-09-18T04:48:30;11.9;;;10.6;;
56271;SDS011;42177;48.914;18.160;2023-09-18T04:53:30;12.1;;;9.9;;
56271;SDS011;42177;48.914;18.160;2023-09-18T04:58:31;12.1;;;9.9;;
56271;SDS011;42177;48.914;18.160;2023-09-18T05:03:32;12.5;;;9.4;;
56271;SDS011;42177;48.914;18.160;2023-09-18T05:08:30;12.5;;;9.4;;
56271;SDS011;42177;48.914;18.160;2023-09-18T05:13:30;12.4;;;9.4;;
56271;SDS011;42177;48.914;18.160;2023-09-18T05:18:30;12.4;;;9.4;;
56271;SDS011;42177;48.914;18.160;2023-09-18T05:23:30;10.4;;;9.2;;
56271;SDS011;42177;48.914;18.160;2023-09-18T05:28:30;10.4;;;9.2;;
56271;SDS011;42177;48.914;18.160;2023-09-18T05:33:30;11.3;;;9.6;;
56271;SDS011;42177;48.914;18.160;2023-09-18T05:38:30;11.3;;;9.6;;
56271;SDS011;42177;48.914;18.160;2023-09-18T05:43:30;10.9;;;9.2;;
56271;SDS011;42177;48.914;18.160;2023-09-18T05:48:30;10.9;;;9.2;;
56271;SDS011;42177;48.914;18.160;2023-09-18T05:53:30;11.6;;;10.3;;
56271;SDS011;42177;48.914;18.160;2023-09-18T05:58:30;11.6;;;10.3;;
56271;SDS011;42177;48.914;18.160;2023-09-18T06:03:30;11.5;;;9.8;;
56271;SDS011;42177;48.914;18.160;2023-09-18T06:08:30;11.5;;;9.8;;
56271;SDS011;42177;48.914;18.160;2023-09-18T06:13:30;11.1;;;9.7;;
56271;SDS011;42177;48.914;18.160;2023-09-18T06:18:30;11.1;;;9.7;;
56271;SDS011;42177;48.914;18.160;2023-09-18T06:23:30;11.3;;;10.1;;
56271;SDS011;42177;48.914;18.160;2023-09-18T06:28:30;11.3;;;10.1;;
56271;SDS011;42177;48.914;18.160;2023-09-18T06:33:30;14.6;;;10.1;;
56271;SDS011;42177;48.914;18.160;2023-09-18T06:38:30;14.6;;;10.1;;
56271;SDS011;42177;48.914;18.160;2023-09-18T06:43:30;12;;;9.6;;
56271;SDS011;42177;48.914;18.160;2023-09-18T06:48:30;12;;;9.6;;
56271;SDS011;42177;48.914;18.160;2023-09-18T06:53:30;10.8;;;9.7;;
56271;SDS011;42177;48.914;18.160;2023-09-18T06:58:30;10.8;;;9.7;;
56271;SDS011;42177;48.914;18.160;2023-09-18T07:03:30;11.9;;;8.9;;
56271;SDS011;42177;48.914;18.160;2023-09-18T07:08:30;11.9;;;8.9;;
56271;SDS011;42177;48.914;18.160;2023-09-18T07:13:30;9.4;;;7.9;;
56271;SDS011;42177;48.914;18.160;2023-09-18T07:18:30;9.4;;;7.9;;
56271;SDS011;42177;48.914;18.160;2023-09-18T07:23:30;10.4;;;8;;
56271;SDS011;42177;48.914;18.160;2023-09-18T07:28:30;10.4;;;8;;
56271;SDS011;42177;48.914;18.160;2023-09-18T07:33:30;10.7;;;7.3;;
56271;SDS011;42177;48.914;18.160;2023-09-18T07:38:30;10.7;;;7.3;;
56271;SDS011;42177;48.914;18.160;2023-09-18T07:43:30;9.7;;;7.9;;
56271;SDS011;42177;48.914;18.160;2023-09-18T07:48:30;9.7;;;7.9;;
56271;SDS011;42177;48.914;18.160;2023-09-18T07:53:30;9.7;;;7.4;;
56271;SDS011;42177;48.914;18.160;2023-09-18T07:58:30;9.7;;;7.4;;
56271;SDS011;42177;48.914;18.160;2023-09-18T08:03:31;8.1;;;7.3;;
56271;SDS011;42177;48.914;18.160;2023-09-18T08:08:30;8.1;;;7.3;;
56271;SDS011;42177;48.914;18.160;2023-09-18T08:13:30;8.2;;;6.8;;
56271;SDS011;42177;48.914;18.160;2023-09-18T08:18:30;8.2;;;6.8;;
56271;SDS011;42177;48.914;18.160;2023-09-18T08:23:30;9.4;;;6.4;;
56271;SDS011;42177;48.914;18.160;2023-09-18T08:28:30;9.4;;;6.4;;
56271;SDS011;42177;48.914;18.160;2023-09-18T08:33:30;7.7;;;6.2;;
56271;SDS011;42177;48.914;18.160;2023-09-18T08:38:31;7.7;;;6.2;;
56271;SDS011;42177;48.914;18.160;2023-09-18T08:43:31;6.6;;;5.3;;
56271;SDS011;42177;48.914;18.160;2023-09-18T08:48:30;6.6;;;5.3;;
56271;SDS011;42177;48.914;18.160;2023-09-18T08:53:30;6.6;;;5;;
56271;SDS011;42177;48.914;18.160;2023-09-18T08:58:31;6.6;;;5;;
56271;SDS011;42177;48.914;18.160;2023-09-18T09:03:30;7.7;;;5.4;;
56271;SDS011;42177;48.914;18.160;2023-09-18T09:08:30;7.7;;;5.4;;
56271;SDS011;42177;48.914;18.160;2023-09-18T09:13:30;7.4;;;5.1;;
56271;SDS011;42177;48.914;18.160;2023-09-18T09:18:30;7.4;;;5.1;;
56271;SDS011;42177;48.914;18.160;2023-09-18T09:23:45;7.2;;;4.9;;
56271;SDS011;42177;48.914;18.160;2023-09-18T09:28:31;7.2;;;4.9;;
56271;SDS011;42177;48.914;18.160;2023-09-18T09:33:31;5.5;;;4.7;;
56271;SDS011;42177;48.914;18.160;2023-09-18T09:38:31;5.5;;;4.7;;
56271;SDS011;42177;48.914;18.160;2023-09-18T09:43:31;5.2;;;4.7;;
56271;SDS011;42177;48.914;18.160;2023-09-18T09:48:30;5.2;;;4.7;;
56271;SDS011;42177;48.914;18.160;2023-09-18T09:53:46;6.9;;;4.6;;
56271;SDS011;42177;48.914;18.160;2023-09-18T09:58:30;6.9;;;4.6;;
56271;SDS011;42177;48.914;18.160;2023-09-18T10:03:30;8.2;;;5;;
56271;SDS011;42177;48.914;18.160;2023-09-18T10:08:30;8.2;;;5;;
56271;SDS011;42177;48.914;18.160;2023-09-18T10:13:32;5.1;;;4.6;;
56271;SDS011;42177;48.914;18.160;2023-09-18T10:18:32;5.1;;;4.6;;
56271;SDS011;42177;48.914;18.160;2023-09-18T10:23:34;5.6;;;4;;
56271;SDS011;42177;48.914;18.160;2023-09-18T10:28:30;5.6;;;4;;
56271;SDS011;42177;48.914;18.160;2023-09-18T10:33:30;7;;;4.8;;
56271;SDS011;42177;48.914;18.160;2023-09-18T10:38:30;7;;;4.8;;
56271;SDS011;42177;48.914;18.160;2023-09-18T10:43:30;6.6;;;5.3;;
56271;SDS011;42177;48.914;18.160;2023-09-18T10:48:30;6.6;;;5.3;;
56271;SDS011;42177;48.914;18.160;2023-09-18T10:53:31;6;;;4.9;;
56271;SDS011;42177;48.914;18.160;2023-09-18T10:58:30;6;;;4.9;;
56271;SDS011;42177;48.914;18.160;2023-09-18T11:03:32;6.9;;;5.1;;
56271;SDS011;42177;48.914;18.160;2023-09-18T11:08:31;6.9;;;5.1;;
56271;SDS011;42177;48.914;18.160;2023-09-18T11:13:31;7.3;;;6;;
56271;SDS011;42177;48.914;18.160;2023-09-18T11:18:32;7.3;;;6;;
56271;SDS011;42177;48.914;18.160;2023-09-18T11:23:34;8;;;5.8;;
56271;SDS011;42177;48.914;18.160;2023-09-18T11:28:30;8;;;5.8;;
56271;SDS011;42177;48.914;18.160;2023-09-18T11:33:31;6.6;;;5.7;;
56271;SDS011;42177;48.914;18.160;2023-09-18T11:38:30;6.6;;;5.7;;
56271;SDS011;42177;48.914;18.160;2023-09-18T11:43:30;7.1;;;5.7;;
56271;SDS011;42177;48.914;18.160;2023-09-18T11:48:30;7.1;;;5.7;;
56271;SDS011;42177;48.914;18.160;2023-09-18T11:53:33;7.5;;;6;;
56271;SDS011;42177;48.914;18.160;2023-09-18T11:58:30;7.5;;;6;;
56271;SDS011;42177;48.914;18.160;2023-09-18T12:03:30;8.3;;;6.4;;
56271;SDS011;42177;48.914;18.160;2023-09-18T12:08:31;8.3;;;6.4;;
56271;SDS011;42177;48.914;18.160;2023-09-18T12:13:31;8.4;;;6;;
56271;SDS011;42177;48.914;18.160;2023-09-18T12:18:31;8.4;;;6;;
56271;SDS011;42177;48.914;18.160;2023-09-18T12:23:38;7.9;;;6;;
56271;SDS011;42177;48.914;18.160;2023-09-18T12:28:30;7.9;;;6;;
56271;SDS011;42177;48.914;18.160;2023-09-18T12:33:33;11.4;;;6.9;;
56271;SDS011;42177;48.914;18.160;2023-09-18T12:38:31;11.4;;;6.9;;
56271;SDS011;42177;48.914;18.160;2023-09-18T12:43:31;7.7;;;6.2;;
56271;SDS011;42177;48.914;18.160;2023-09-18T12:48:30;7.7;;;6.2;;
56271;SDS011;42177;48.914;18.160;2023-09-18T12:53:31;7.5;;;6.1;;
56271;SDS011;42177;48.914;18.160;2023-09-18T12:58:30;7.5;;;6.1;;
56271;SDS011;42177;48.914;18.160;2023-09-18T13:03:31;7.8;;;5.9;;
56271;SDS011;42177;48.914;18.160;2023-09-18T13:08:31;7.8;;;5.9;;
56271;SDS011;42177;48.914;18.160;2023-09-18T13:13:31;7.8;;;6.6;;
56271;SDS011;42177;48.914;18.160;2023-09-18T13:18:31;7.8;;;6.6;;
56271;SDS011;42177;48.914;18.160;2023-09-18T13:23:31;6.9;;;5.8;;
56271;SDS011;42177;48.914;18.160;2023-09-18T13:28:31;6.9;;;5.8;;
56271;SDS011;42177;48.914;18.160;2023-09-18T13:33:31;8;;;5.7;;
56271;SDS011;42177;48.914;18.160;2023-09-18T13:38:31;8;;;5.7;;
56271;SDS011;42177;48.914;18.160;2023-09-18T13:43:30;7.3;;;5.8;;
56271;SDS011;42177;48.914;18.160;2023-09-18T13:48:30;7.3;;;5.8;;
56271;SDS011;42177;48.914;18.160;2023-09-18T13:53:31;6.9;;;6.2;;
56271;SDS011;42177;48.914;18.160;2023-09-18T13:58:31;6.9;;;6.2;;
56271;SDS011;42177;48.914;18.160;2023-09-18T14:03:30;9.4;;;5.8;;
56271;SDS011;42177;48.914;18.160;2023-09-18T14:08:31;9.4;;;5.8;;
56271;SDS011;42177;48.914;18.160;2023-09-18T14:13:31;6.4;;;5.7;;
56271;SDS011;42177;48.914;18.160;2023-09-18T14:18:30;6.4;;;5.7;;
56271;SDS011;42177;48.914;18.160;2023-09-18T14:23:31;8.9;;;5.7;;
56271;SDS011;42177;48.914;18.160;2023-09-18T14:28:31;8.9;;;5.7;;
56271;SDS011;42177;48.914;18.160;2023-09-18T14:33:31;7.9;;;5.8;;
56271;SDS011;42177;48.914;18.160;2023-09-18T14:38:30;7.9;;;5.8;;
56271;SDS011;42177;48.914;18.160;2023-09-18T14:43:31;10;;;6.3;;
56271;SDS011;42177;48.914;18.160;2023-09-18T14:48:31;10;;;6.3;;
56271;SDS011;42177;48.914;18.160;2023-09-18T14:53:31;10.3;;;5.9;;
56271;SDS011;42177;48.914;18.160;2023-09-18T14:58:31;10.3;;;5.9;;
56271;SDS011;42177;48.914;18.160;2023-09-18T15:03:31;12.5;;;6.1;;
56271;SDS011;42177;48.914;18.160;2023-09-18T15:08:31;12.5;;;6.1;;
56271;SDS011;42177;48.914;18.160;2023-09-18T15:13:31;8.3;;;6.2;;
56271;SDS011;42177;48.914;18.160;2023-09-18T15:18:31;8.3;;;6.2;;
56271;SDS011;42177;48.914;18.160;2023-09-18T15:23:30;7.3;;;5.8;;
56271;SDS011;42177;48.914;18.160;2023-09-18T15:28:31;7.3;;;5.8;;
56271;SDS011;42177;48.914;18.160;2023-09-18T15:33:31;6.9;;;5.6;;
56271;SDS011;42177;48.914;18.160;2023-09-18T15:38:31;6.9;;;5.6;;
56271;SDS011;42177;48.914;18.160;2023-09-18T15:43:31;11.1;;;6;;
56271;SDS011;42177;48.914;18.160;2023-09-18T15:48:31;11.1;;;6;;
56271;SDS011;42177;48.914;18.160;2023-09-18T15:53:31;7.4;;;5.5;;
56271;SDS011;42177;48.914;18.160;2023-09-18T15:58:31;7.4;;;5.5;;
56271;SDS011;42177;48.914;18.160;2023-09-18T16:03:31;7.1;;;6;;
56271;SDS011;42177;48.914;18.160;2023-09-18T16:08:31;7.1;;;6;;
56271;SDS011;42177;48.914;18.160;2023-09-18T16:13:31;7.3;;;5.7;;
56271;SDS011;42177;48.914;18.160;2023-09-18T16:18:31;7.3;;;5.7;;
56271;SDS011;42177;48.914;18.160;2023-09-18T16:23:31;7.3;;;6.2;;
56271;SDS011;42177;48.914;18.160;2023-09-18T16:28:31;7.3;;;6.2;;
56271;SDS011;42177;48.914;18.160;2023-09-18T16:33:31;6.8;;;6.1;;
56271;SDS011;42177;48.914;18.160;2023-09-18T16:38:31;6.8;;;6.1;;
56271;SDS011;42177;48.914;18.160;2023-09-18T16:43:31;7.7;;;5.9;;
56271;SDS011;42177;48.914;18.160;2023-09-18T16:48:31;7.7;;;5.9;;
56271;SDS011;42177;48.914;18.160;2023-09-18T16:53:31;9.5;;;6.4;;
56271;SDS011;42177;48.914;18.160;2023-09-18T16:58:31;9.5;;;6.4;;
56271;SDS011;42177;48.914;18.160;2023-09-18T17:03:31;7.3;;;6.1;;
56271;SDS011;42177;48.914;18.160;2023-09-18T17:08:31;7.3;;;6.1;;
56271;SDS011;42177;48.914;18.160;2023-09-18T17:13:31;10.2;;;6.3;;
56271;SDS011;42177;48.914;18.160;2023-09-18T17:18:31;10.2;;;6.3;;
56271;SDS011;42177;48.914;18.160;2023-09-18T17:23:31;7.8;;;6.2;;
56271;SDS011;42177;48.914;18.160;2023-09-18T17:28:31;7.8;;;6.2;;
56271;SDS011;42177;48.914;18.160;2023-09-18T17:33:31;9.3;;;6.1;;
56271;SDS011;42177;48.914;18.160;2023-09-18T17:38:31;9.3;;;6.1;;
56271;SDS011;42177;48.914;18.160;2023-09-18T17:43:31;11.5;;;6.5;;
56271;SDS011;42177;48.914;18.160;2023-09-18T17:48:31;11.5;;;6.5;;
56271;SDS011;42177;48.914;18.160;2023-09-18T17:53:31;7.6;;;6.4;;
56271;SDS011;42177;48.914;18.160;2023-09-18T17:58:31;7.6;;;6.4;;
56271;SDS011;42177;48.914;18.160;2023-09-18T18:03:31;9.2;;;6.5;;
56271;SDS011;42177;48.914;18.160;2023-09-18T18:08:31;9.2;;;6.5;;
56271;SDS011;42177;48.914;18.160;2023-09-18T18:13:31;7.3;;;6;;
56271;SDS011;42177;48.914;18.160;2023-09-18T18:18:31;7.3;;;6;;
56271;SDS011;42177;48.914;18.160;2023-09-18T18:23:31;9;;;6.2;;
56271;SDS011;42177;48.914;18.160;2023-09-18T18:28:31;9;;;6.2;;
56271;SDS011;42177;48.914;18.160;2023-09-18T18:33:31;7.8;;;6.3;;
56271;SDS011;42177;48.914;18.160;2023-09-18T18:38:31;7.8;;;6.3;;
56271;SDS011;42177;48.914;18.160;2023-09-18T18:43:31;8.2;;;6.4;;
56271;SDS011;42177;48.914;18.160;2023-09-18T18:48:31;8.2;;;6.4;;
56271;SDS011;42177;48.914;18.160;2023-09-18T18:53:31;9.2;;;6.4;;
56271;SDS011;42177;48.914;18.160;2023-09-18T18:58:31;9.2;;;6.4;;
56271;SDS011;42177;48.914;18.160;2023-09-18T19:03:31;8.1;;;5.9;;
56271;SDS011;42177;48.914;18.160;2023-09-18T19:08:31;8.1;;;5.9;;
56271;SDS011;42177;48.914;18.160;2023-09-18T19:13:31;7.9;;;6.4;;
56271;SDS011;42177;48.914;18.160;2023-09-18T19:18:31;7.9;;;6.4;;
56271;SDS011;42177;48.914;18.160;2023-09-18T19:23:31;8.6;;;7;;
56271;SDS011;42177;48.914;18.160;2023-09-18T19:28:31;8.6;;;7;;
56271;SDS011;42177;48.914;18.160;2023-09-18T19:33:31;9.6;;;6.9;;
56271;SDS011;42177;48.914;18.160;2023-09-18T19:38:31;9.6;;;6.9;;
56271;SDS011;42177;48.914;18.160;2023-09-18T19:43:31;9.9;;;6.4;;
56271;SDS011;42177;48.914;18.160;2023-09-18T19:48:31;9.9;;;6.4;;
56271;SDS011;42177;48.914;18.160;2023-09-18T19:53:31;9.7;;;6.6;;
56271;SDS011;42177;48.914;18.160;2023-09-18T19:58:31;9.7;;;6.6;;
56271;SDS011;42177;48.914;18.160;2023-09-18T20:03:31;11.1;;;6.8;;
56271;SDS011;42177;48.914;18.160;2023-09-18T20:08:31;11.1;;;6.8;;
56271;SDS011;42177;48.914;18.160;2023-09-18T20:13:31;8.4;;;7.3;;
56271;SDS011;42177;48.914;18.160;2023-09-18T20:18:31;8.4;;;7.3;;
56271;SDS011;42177;48.914;18.160;2023-09-18T20:23:31;9.9;;;7.2;;
56271;SDS011;42177;48.914;18.160;2023-09-18T20:28:31;9.9;;;7.2;;
56271;SDS011;42177;48.914;18.160;2023-09-18T20:33:31;8.5;;;6.5;;
56271;SDS011;42177;48.914;18.160;2023-09-18T20:38:31;8.5;;;6.5;;
56271;SDS011;42177;48.914;18.160;2023-09-18T20:43:31;9.4;;;7.2;;
56271;SDS011;42177;48.914;18.160;2023-09-18T20:48:31;9.4;;;7.2;;
56271;SDS011;42177;48.914;18.160;2023-09-18T20:53:31;10.8;;;7.4;;
56271;SDS011;42177;48.914;18.160;2023-09-18T20:58:31;10.8;;;7.4;;
56271;SDS011;42177;48.914;18.160;2023-09-18T21:03:31;8.7;;;7.4;;
56271;SDS011;42177;48.914;18.160;2023-09-18T21:08:31;8.7;;;7.4;;
56271;SDS011;42177;48.914;18.160;2023-09-18T21:13:31;9.3;;;6.9;;
56271;SDS011;42177;48.914;18.160;2023-09-18T21:18:31;9.3;;;6.9;;
56271;SDS011;42177;48.914;18.160;2023-09-18T21:23:31;8;;;7.2;;
56271;SDS011;42177;48.914;18.160;2023-09-18T21:28:31;8;;;7.2;;
56271;SDS011;42177;48.914;18.160;2023-09-18T21:33:31;10.5;;;7;;
56271;SDS011;42177;48.914;18.160;2023-09-18T21:38:31;10.5;;;7;;
56271;SDS011;42177;48.914;18.160;2023-09-18T21:43:31;12.6;;;7.7;;
56271;SDS011;42177;48.914;18.160;2023-09-18T21:48:31;12.6;;;7.7;;
56271;SDS011;42177;48.914;18.160;2023-09-18T21:53:31;10.6;;;7.6;;
56271;SDS011;42177;48.914;18.160;2023-09-18T21:58:31;10.6;;;7.6;;
56271;SDS011;42177;48.914;18.160;2023-09-18T22:08:31;9.5;;;7.9;;
56271;SDS011;42177;48.914;18.160;2023-09-18T22:13:31;8.5;;;7.6;;
56271;SDS011;42177;48.914;18.160;2023-09-18T22:18:31;8.5;;;7.6;;
56271;SDS011;42177;48.914;18.160;2023-09-18T22:23:31;10.6;;;8.1;;
56271;SDS011;42177;48.914;18.160;2023-09-18T22:28:31;10.6;;;8.1;;
56271;SDS011;42177;48.914;18.160;2023-09-18T22:33:31;10.5;;;8.7;;
56271;SDS011;42177;48.914;18.160;2023-09-18T22:38:34;10.5;;;8.7;;
56271;SDS011;42177;48.914;18.160;2023-09-18T22:58:31;8.9;;;8;;
56271;SDS011;42177;48.914;18.160;2023-09-18T23:03:31;9.6;;;8.6;;
56271;SDS011;42177;48.914;18.160;2023-09-18T23:08:31;9.6;;;8.6;;
56271;SDS011;42177;48.914;18.160;2023-09-18T23:13:31;9.5;;;8.5;;
56271;SDS011;42177;48.914;18.160;2023-09-18T23:18:31;9.5;;;8.5;;
56271;SDS011;42177;48.914;18.160;2023-09-18T23:23:31;13.3;;;9.1;;
56271;SDS011;42177;48.914;18.160;2023-09-18T23:28:31;13.3;;;9.1;;
56271;SDS011;42177;48.914;18.160;2023-09-18T23:33:31;10.2;;;9.1;;
56271;SDS011;42177;48.914;18.160;2023-09-18T23:38:31;10.2;;;9.1;;
56271;SDS011;42177;48.914;18.160;2023-09-18T23:43:31;9.6;;;8.6;;
56271;SDS011;42177;48.914;18.160;2023-09-18T23:48:31;9.6;;;8.6;;
56271;SDS011;42177;48.914;18.160;2023-09-18T23:53:31;10.3;;;8.8;;
56271;SDS011;42177;48.914;18.160;2023-09-18T23:58:31;10.3;;;8.8;;
